sensor_id;sensor_type;location;lat;lon;timestamp;temperature;humidity
2571;DHT22;1295;51.130;6.732;2023-02-05T00:01:32;8.40;99.90
2571;DHT22;1295;51.130;6.732;2023-02-05T00:03:57;8.40;99.90
2571;DHT22;1295;51.130;6.732;2023-02-05T00:06:23;8.40;99.90
2571;DHT22;1295;51.130;6.732;2023-02-05T00:08:49;8.40;99.90
2571;DHT22;1295;51.130;6.732;2023-02-05T00:11:14;8.40;99.90
2571;DHT22;1295;51.130;6.732;2023-02-05T00:13:40;8.40;99.90
2571;DHT22;1295;51.130;6.732;2023-02-05T00:16:06;8.40;99.90
2571;DHT22;1295;51.130;6.732;2023-02-05T00:18:31;8.40;99.90
2571;DHT22;1295;51.130;6.732;2023-02-05T00:20:57;8.40;99.90
2571;DHT22;1295;51.130;6.732;2023-02-05T00:23:22;8.40;99.90
2571;DHT22;1295;51.130;6.732;2023-02-05T00:25:48;8.40;99.90
2571;DHT22;1295;51.130;6.732;2023-02-05T00:28:14;8.40;99.90
2571;DHT22;1295;51.130;6.732;2023-02-05T00:30:40;8.40;99.90
2571;DHT22;1295;51.130;6.732;2023-02-05T00:33:06;8.40;99.90
2571;DHT22;1295;51.130;6.732;2023-02-05T00:35:32;8.40;99.90
2571;DHT22;1295;51.130;6.732;2023-02-05T00:37:58;8.30;99.90
2571;DHT22;1295;51.130;6.732;2023-02-05T00:40:23;8.40;99.90
2571;DHT22;1295;51.130;6.732;2023-02-05T00:42:49;8.40;99.90
2571;DHT22;1295;51.130;6.732;2023-02-05T00:45:15;8.40;99.90
2571;DHT22;1295;51.130;6.732;2023-02-05T00:47:41;8.30;99.90
2571;DHT22;1295;51.130;6.732;2023-02-05T00:50:07;8.30;99.90
2571;DHT22;1295;51.130;6.732;2023-02-05T00:52:33;8.40;99.90
2571;DHT22;1295;51.130;6.732;2023-02-05T00:54:58;8.30;99.90
2571;DHT22;1295;51.130;6.732;2023-02-05T00:57:24;8.40;99.90
2571;DHT22;1295;51.130;6.732;2023-02-05T00:59:51;8.30;99.90
2571;DHT22;1295;51.130;6.732;2023-02-05T01:02:18;8.30;99.90
2571;DHT22;1295;51.130;6.732;2023-02-05T01:04:43;8.30;99.90
2571;DHT22;1295;51.130;6.732;2023-02-05T01:07:09;8.30;99.90
2571;DHT22;1295;51.130;6.732;2023-02-05T01:09:35;8.30;99.90
2571;DHT22;1295;51.130;6.732;2023-02-05T01:12:00;8.30;99.90
2571;DHT22;1295;51.130;6.732;2023-02-05T01:14:26;8.30;99.90
2571;DHT22;1295;51.130;6.732;2023-02-05T01:16:51;8.30;99.90
2571;DHT22;1295;51.130;6.732;2023-02-05T01:19:17;8.30;99.90
2571;DHT22;1295;51.130;6.732;2023-02-05T01:21:43;8.30;99.90
2571;DHT22;1295;51.130;6.732;2023-02-05T01:24:08;8.40;99.90
2571;DHT22;1295;51.130;6.732;2023-02-05T01:26:34;8.10;99.90
2571;DHT22;1295;51.130;6.732;2023-02-05T01:29:00;7.40;99.90
2571;DHT22;1295;51.130;6.732;2023-02-05T01:31:26;7.40;99.90
2571;DHT22;1295;51.130;6.732;2023-02-05T01:33:51;7.60;99.90
2571;DHT22;1295;51.130;6.732;2023-02-05T01:36:17;7.90;99.90
2571;DHT22;1295;51.130;6.732;2023-02-05T01:38:43;8.10;99.90
2571;DHT22;1295;51.130;6.732;2023-02-05T01:41:09;8.20;99.90
2571;DHT22;1295;51.130;6.732;2023-02-05T01:43:34;8.30;99.90
2571;DHT22;1295;51.130;6.732;2023-02-05T01:46:13;8.20;99.90
2571;DHT22;1295;51.130;6.732;2023-02-05T01:48:40;8.30;99.90
2571;DHT22;1295;51.130;6.732;2023-02-05T01:51:05;8.30;99.90
2571;DHT22;1295;51.130;6.732;2023-02-05T01:53:31;8.30;99.90
2571;DHT22;1295;51.130;6.732;2023-02-05T01:55:57;8.30;99.90
2571;DHT22;1295;51.130;6.732;2023-02-05T01:58:22;8.30;99.90
2571;DHT22;1295;51.130;6.732;2023-02-05T02:00:47;8.30;99.90
2571;DHT22;1295;51.130;6.732;2023-02-05T02:03:13;8.30;99.90
2571;DHT22;1295;51.130;6.732;2023-02-05T02:05:38;8.30;99.90
2571;DHT22;1295;51.130;6.732;2023-02-05T02:08:04;8.30;99.90
2571;DHT22;1295;51.130;6.732;2023-02-05T02:10:30;8.30;99.90
2571;DHT22;1295;51.130;6.732;2023-02-05T02:12:55;8.20;99.90
2571;DHT22;1295;51.130;6.732;2023-02-05T02:15:21;8.30;99.90
2571;DHT22;1295;51.130;6.732;2023-02-05T02:17:49;8.20;99.90
2571;DHT22;1295;51.130;6.732;2023-02-05T02:20:14;8.20;99.90
2571;DHT22;1295;51.130;6.732;2023-02-05T02:22:46;8.20;99.90
2571;DHT22;1295;51.130;6.732;2023-02-05T02:27:51;8.20;99.90
2571;DHT22;1295;51.130;6.732;2023-02-05T02:30:19;8.20;99.90
2571;DHT22;1295;51.130;6.732;2023-02-05T02:32:45;8.20;99.90
2571;DHT22;1295;51.130;6.732;2023-02-05T02:35:18;8.20;99.90
2571;DHT22;1295;51.130;6.732;2023-02-05T02:37:44;8.20;99.90
2571;DHT22;1295;51.130;6.732;2023-02-05T02:40:17;8.20;99.90
2571;DHT22;1295;51.130;6.732;2023-02-05T02:42:45;8.10;99.90
2571;DHT22;1295;51.130;6.732;2023-02-05T02:45:11;8.20;99.90
2571;DHT22;1295;51.130;6.732;2023-02-05T02:47:37;8.20;99.90
2571;DHT22;1295;51.130;6.732;2023-02-05T02:50:09;8.20;99.90
2571;DHT22;1295;51.130;6.732;2023-02-05T02:52:35;8.20;99.90
2571;DHT22;1295;51.130;6.732;2023-02-05T02:54:59;8.20;99.90
2571;DHT22;1295;51.130;6.732;2023-02-05T02:57:26;8.20;99.90
2571;DHT22;1295;51.130;6.732;2023-02-05T02:59:51;8.10;99.90
2571;DHT22;1295;51.130;6.732;2023-02-05T03:02:16;8.10;99.90
2571;DHT22;1295;51.130;6.732;2023-02-05T03:04:46;8.10;99.90
2571;DHT22;1295;51.130;6.732;2023-02-05T03:07:12;8.10;99.90
2571;DHT22;1295;51.130;6.732;2023-02-05T03:09:56;8.20;99.90
2571;DHT22;1295;51.130;6.732;2023-02-05T03:12:21;8.10;99.90
2571;DHT22;1295;51.130;6.732;2023-02-05T03:14:48;8.20;99.90
2571;DHT22;1295;51.130;6.732;2023-02-05T03:17:14;8.10;99.90
2571;DHT22;1295;51.130;6.732;2023-02-05T03:19:39;8.20;99.90
2571;DHT22;1295;51.130;6.732;2023-02-05T03:22:05;8.20;99.90
2571;DHT22;1295;51.130;6.732;2023-02-05T03:24:30;8.20;99.90
2571;DHT22;1295;51.130;6.732;2023-02-05T03:26:57;8.20;99.90
2571;DHT22;1295;51.130;6.732;2023-02-05T03:29:25;8.10;99.90
2571;DHT22;1295;51.130;6.732;2023-02-05T03:35:22;8.20;99.90
2571;DHT22;1295;51.130;6.732;2023-02-05T03:43:18;8.20;99.90
2571;DHT22;1295;51.130;6.732;2023-02-05T03:45:57;8.10;99.90
2571;DHT22;1295;51.130;6.732;2023-02-05T03:48:48;8.10;99.90
2571;DHT22;1295;51.130;6.732;2023-02-05T03:51:32;8.00;99.90
2571;DHT22;1295;51.130;6.732;2023-02-05T03:56:38;8.10;99.90
2571;DHT22;1295;51.130;6.732;2023-02-05T03:59:01;8.10;99.90
2571;DHT22;1295;51.130;6.732;2023-02-05T04:01:27;8.10;99.90
2571;DHT22;1295;51.130;6.732;2023-02-05T04:03:52;7.90;99.90
2571;DHT22;1295;51.130;6.732;2023-02-05T04:06:19;8.00;99.90
2571;DHT22;1295;51.130;6.732;2023-02-05T04:08:45;8.10;99.90
2571;DHT22;1295;51.130;6.732;2023-02-05T04:11:11;8.10;99.90
2571;DHT22;1295;51.130;6.732;2023-02-05T04:13:37;8.10;99.90
2571;DHT22;1295;51.130;6.732;2023-02-05T04:16:02;8.10;99.90
2571;DHT22;1295;51.130;6.732;2023-02-05T04:18:28;8.10;99.90
2571;DHT22;1295;51.130;6.732;2023-02-05T04:20:54;8.10;99.90
2571;DHT22;1295;51.130;6.732;2023-02-05T04:23:19;8.10;99.90
2571;DHT22;1295;51.130;6.732;2023-02-05T04:25:45;8.10;99.90
2571;DHT22;1295;51.130;6.732;2023-02-05T04:28:10;8.00;99.90
2571;DHT22;1295;51.130;6.732;2023-02-05T04:30:37;7.80;99.90
2571;DHT22;1295;51.130;6.732;2023-02-05T04:33:03;7.70;99.90
2571;DHT22;1295;51.130;6.732;2023-02-05T04:35:28;7.90;99.90
2571;DHT22;1295;51.130;6.732;2023-02-05T04:37:54;7.90;99.90
2571;DHT22;1295;51.130;6.732;2023-02-05T04:40:19;7.90;99.90
2571;DHT22;1295;51.130;6.732;2023-02-05T04:42:45;8.00;99.90
2571;DHT22;1295;51.130;6.732;2023-02-05T04:45:11;7.90;99.90
2571;DHT22;1295;51.130;6.732;2023-02-05T04:47:36;8.00;99.90
2571;DHT22;1295;51.130;6.732;2023-02-05T04:50:02;7.80;99.90
2571;DHT22;1295;51.130;6.732;2023-02-05T04:52:28;7.90;99.90
2571;DHT22;1295;51.130;6.732;2023-02-05T04:54:53;8.00;99.90
2571;DHT22;1295;51.130;6.732;2023-02-05T04:57:19;8.00;99.90
2571;DHT22;1295;51.130;6.732;2023-02-05T04:59:44;8.10;99.90
2571;DHT22;1295;51.130;6.732;2023-02-05T05:02:10;8.00;99.90
2571;DHT22;1295;51.130;6.732;2023-02-05T05:04:41;8.00;99.90
2571;DHT22;1295;51.130;6.732;2023-02-05T05:07:17;8.00;99.90
2571;DHT22;1295;51.130;6.732;2023-02-05T05:09:42;7.90;99.90
2571;DHT22;1295;51.130;6.732;2023-02-05T05:12:08;8.00;99.90
2571;DHT22;1295;51.130;6.732;2023-02-05T05:14:34;8.00;99.90
2571;DHT22;1295;51.130;6.732;2023-02-05T05:16:59;8.00;99.90
2571;DHT22;1295;51.130;6.732;2023-02-05T05:19:25;8.00;99.90
2571;DHT22;1295;51.130;6.732;2023-02-05T05:21:51;8.10;99.90
2571;DHT22;1295;51.130;6.732;2023-02-05T05:24:16;8.10;99.90
2571;DHT22;1295;51.130;6.732;2023-02-05T05:26:42;8.00;99.90
2571;DHT22;1295;51.130;6.732;2023-02-05T05:29:10;8.00;99.90
2571;DHT22;1295;51.130;6.732;2023-02-05T05:31:35;7.90;99.90
2571;DHT22;1295;51.130;6.732;2023-02-05T05:34:00;7.90;99.90
2571;DHT22;1295;51.130;6.732;2023-02-05T05:36:26;7.90;99.90
2571;DHT22;1295;51.130;6.732;2023-02-05T05:38:52;7.80;99.90
2571;DHT22;1295;51.130;6.732;2023-02-05T05:41:18;7.80;99.90
2571;DHT22;1295;51.130;6.732;2023-02-05T05:43:50;7.80;99.90
2571;DHT22;1295;51.130;6.732;2023-02-05T05:46:17;7.70;99.90
2571;DHT22;1295;51.130;6.732;2023-02-05T05:48:43;7.60;99.90
2571;DHT22;1295;51.130;6.732;2023-02-05T05:51:09;7.60;99.90
2571;DHT22;1295;51.130;6.732;2023-02-05T05:53:34;7.50;99.90
2571;DHT22;1295;51.130;6.732;2023-02-05T05:56:00;7.50;99.90
2571;DHT22;1295;51.130;6.732;2023-02-05T05:58:25;7.60;99.90
2571;DHT22;1295;51.130;6.732;2023-02-05T06:00:51;7.60;99.90
2571;DHT22;1295;51.130;6.732;2023-02-05T06:03:17;7.70;99.90
2571;DHT22;1295;51.130;6.732;2023-02-05T06:05:42;7.70;99.90
2571;DHT22;1295;51.130;6.732;2023-02-05T06:08:08;7.60;99.90
2571;DHT22;1295;51.130;6.732;2023-02-05T06:10:34;7.60;99.90
2571;DHT22;1295;51.130;6.732;2023-02-05T06:12:59;7.70;99.90
2571;DHT22;1295;51.130;6.732;2023-02-05T06:15:25;7.70;99.90
2571;DHT22;1295;51.130;6.732;2023-02-05T06:17:52;7.70;99.90
2571;DHT22;1295;51.130;6.732;2023-02-05T06:20:17;7.70;99.90
2571;DHT22;1295;51.130;6.732;2023-02-05T06:22:43;7.70;99.90
2571;DHT22;1295;51.130;6.732;2023-02-05T06:25:09;7.70;99.90
2571;DHT22;1295;51.130;6.732;2023-02-05T06:27:34;7.60;99.90
2571;DHT22;1295;51.130;6.732;2023-02-05T06:30:00;7.60;99.90
2571;DHT22;1295;51.130;6.732;2023-02-05T06:32:25;7.70;99.90
2571;DHT22;1295;51.130;6.732;2023-02-05T06:34:52;7.60;99.90
2571;DHT22;1295;51.130;6.732;2023-02-05T06:37:18;7.60;99.90
2571;DHT22;1295;51.130;6.732;2023-02-05T06:39:44;7.60;99.90
2571;DHT22;1295;51.130;6.732;2023-02-05T06:42:09;7.70;99.90
2571;DHT22;1295;51.130;6.732;2023-02-05T06:44:36;7.60;99.90
2571;DHT22;1295;51.130;6.732;2023-02-05T06:47:02;7.50;99.90
2571;DHT22;1295;51.130;6.732;2023-02-05T06:49:27;7.40;99.90
2571;DHT22;1295;51.130;6.732;2023-02-05T06:51:53;7.40;99.90
2571;DHT22;1295;51.130;6.732;2023-02-05T06:54:18;7.50;99.90
2571;DHT22;1295;51.130;6.732;2023-02-05T06:56:44;7.40;99.90
2571;DHT22;1295;51.130;6.732;2023-02-05T06:59:09;7.50;99.90
2571;DHT22;1295;51.130;6.732;2023-02-05T07:01:35;7.50;99.90
2571;DHT22;1295;51.130;6.732;2023-02-05T07:04:02;7.60;99.90
2571;DHT22;1295;51.130;6.732;2023-02-05T07:06:27;7.60;99.90
2571;DHT22;1295;51.130;6.732;2023-02-05T07:08:53;7.80;99.90
2571;DHT22;1295;51.130;6.732;2023-02-05T07:11:19;7.60;99.90
2571;DHT22;1295;51.130;6.732;2023-02-05T07:13:44;7.70;99.90
2571;DHT22;1295;51.130;6.732;2023-02-05T07:16:10;7.50;99.90
2571;DHT22;1295;51.130;6.732;2023-02-05T07:18:35;7.50;99.90
2571;DHT22;1295;51.130;6.732;2023-02-05T07:21:04;7.50;99.90
2571;DHT22;1295;51.130;6.732;2023-02-05T07:23:29;7.40;99.90
2571;DHT22;1295;51.130;6.732;2023-02-05T07:25:55;7.50;99.90
2571;DHT22;1295;51.130;6.732;2023-02-05T07:28:21;7.50;99.90
2571;DHT22;1295;51.130;6.732;2023-02-05T07:30:46;7.40;99.90
2571;DHT22;1295;51.130;6.732;2023-02-05T07:33:12;7.40;99.90
2571;DHT22;1295;51.130;6.732;2023-02-05T07:35:38;7.50;99.90
2571;DHT22;1295;51.130;6.732;2023-02-05T07:38:04;7.50;99.90
2571;DHT22;1295;51.130;6.732;2023-02-05T07:40:30;7.60;99.90
2571;DHT22;1295;51.130;6.732;2023-02-05T07:43:03;7.70;99.90
2571;DHT22;1295;51.130;6.732;2023-02-05T07:45:28;7.70;99.90
2571;DHT22;1295;51.130;6.732;2023-02-05T07:47:54;7.80;99.90
2571;DHT22;1295;51.130;6.732;2023-02-05T07:50:20;7.70;99.90
2571;DHT22;1295;51.130;6.732;2023-02-05T07:52:45;7.70;99.90
2571;DHT22;1295;51.130;6.732;2023-02-05T07:55:11;7.70;99.90
2571;DHT22;1295;51.130;6.732;2023-02-05T07:57:37;7.70;99.90
2571;DHT22;1295;51.130;6.732;2023-02-05T08:00:04;7.60;99.90
2571;DHT22;1295;51.130;6.732;2023-02-05T08:02:30;7.60;99.90
2571;DHT22;1295;51.130;6.732;2023-02-05T08:04:55;7.50;99.90
2571;DHT22;1295;51.130;6.732;2023-02-05T08:07:21;7.60;99.90
2571;DHT22;1295;51.130;6.732;2023-02-05T08:09:47;7.70;99.90
2571;DHT22;1295;51.130;6.732;2023-02-05T08:12:13;7.70;99.90
2571;DHT22;1295;51.130;6.732;2023-02-05T08:14:39;7.60;99.90
2571;DHT22;1295;51.130;6.732;2023-02-05T08:17:05;7.70;99.90
2571;DHT22;1295;51.130;6.732;2023-02-05T08:19:30;7.70;99.90
2571;DHT22;1295;51.130;6.732;2023-02-05T08:21:56;7.70;99.90
2571;DHT22;1295;51.130;6.732;2023-02-05T08:24:21;7.70;99.90
2571;DHT22;1295;51.130;6.732;2023-02-05T08:26:47;7.60;99.90
2571;DHT22;1295;51.130;6.732;2023-02-05T08:29:13;7.60;99.90
2571;DHT22;1295;51.130;6.732;2023-02-05T08:31:38;7.70;99.90
2571;DHT22;1295;51.130;6.732;2023-02-05T08:34:04;7.70;99.90
2571;DHT22;1295;51.130;6.732;2023-02-05T08:36:30;7.70;99.90
2571;DHT22;1295;51.130;6.732;2023-02-05T08:38:56;7.70;99.90
2571;DHT22;1295;51.130;6.732;2023-02-05T08:41:22;7.70;99.90
2571;DHT22;1295;51.130;6.732;2023-02-05T08:43:48;7.70;99.90
2571;DHT22;1295;51.130;6.732;2023-02-05T08:46:14;7.70;99.90
2571;DHT22;1295;51.130;6.732;2023-02-05T08:48:38;7.70;99.90
2571;DHT22;1295;51.130;6.732;2023-02-05T08:51:04;7.70;99.90
2571;DHT22;1295;51.130;6.732;2023-02-05T08:53:31;7.70;99.90
2571;DHT22;1295;51.130;6.732;2023-02-05T08:55:57;7.70;99.90
2571;DHT22;1295;51.130;6.732;2023-02-05T08:58:22;7.70;99.90
2571;DHT22;1295;51.130;6.732;2023-02-05T09:00:47;7.70;99.90
2571;DHT22;1295;51.130;6.732;2023-02-05T09:03:13;7.60;99.90
2571;DHT22;1295;51.130;6.732;2023-02-05T09:05:39;7.70;99.90
2571;DHT22;1295;51.130;6.732;2023-02-05T09:08:04;7.70;99.90
2571;DHT22;1295;51.130;6.732;2023-02-05T09:10:30;7.70;99.90
2571;DHT22;1295;51.130;6.732;2023-02-05T09:12:56;7.70;99.90
2571;DHT22;1295;51.130;6.732;2023-02-05T09:15:21;7.70;99.90
2571;DHT22;1295;51.130;6.732;2023-02-05T09:17:47;7.60;99.90
2571;DHT22;1295;51.130;6.732;2023-02-05T09:20:13;7.60;99.90
2571;DHT22;1295;51.130;6.732;2023-02-05T09:22:38;7.60;99.90
2571;DHT22;1295;51.130;6.732;2023-02-05T09:25:05;7.70;99.90
2571;DHT22;1295;51.130;6.732;2023-02-05T09:27:31;7.60;99.90
2571;DHT22;1295;51.130;6.732;2023-02-05T09:29:56;7.60;99.90
2571;DHT22;1295;51.130;6.732;2023-02-05T09:32:22;7.60;99.90
2571;DHT22;1295;51.130;6.732;2023-02-05T09:34:48;7.60;99.90
2571;DHT22;1295;51.130;6.732;2023-02-05T09:37:14;7.60;99.90
2571;DHT22;1295;51.130;6.732;2023-02-05T09:39:40;7.60;99.90
2571;DHT22;1295;51.130;6.732;2023-02-05T09:42:26;7.60;99.90
2571;DHT22;1295;51.130;6.732;2023-02-05T09:45:13;7.60;99.90
2571;DHT22;1295;51.130;6.732;2023-02-05T09:47:40;7.60;99.90
2571;DHT22;1295;51.130;6.732;2023-02-05T09:50:08;7.70;99.90
2571;DHT22;1295;51.130;6.732;2023-02-05T09:52:34;7.60;99.90
2571;DHT22;1295;51.130;6.732;2023-02-05T09:55:00;7.60;99.90
2571;DHT22;1295;51.130;6.732;2023-02-05T09:57:30;7.60;99.90
2571;DHT22;1295;51.130;6.732;2023-02-05T09:59:55;7.60;99.90
2571;DHT22;1295;51.130;6.732;2023-02-05T10:02:28;7.60;99.90
2571;DHT22;1295;51.130;6.732;2023-02-05T10:04:52;7.60;99.90
2571;DHT22;1295;51.130;6.732;2023-02-05T10:07:24;7.60;99.90
2571;DHT22;1295;51.130;6.732;2023-02-05T10:10:08;7.60;99.90
2571;DHT22;1295;51.130;6.732;2023-02-05T10:12:36;7.60;99.90
2571;DHT22;1295;51.130;6.732;2023-02-05T10:15:08;7.60;99.90
2571;DHT22;1295;51.130;6.732;2023-02-05T10:18:46;7.60;99.90
2571;DHT22;1295;51.130;6.732;2023-02-05T10:20:24;7.60;99.90
2571;DHT22;1295;51.130;6.732;2023-02-05T10:23:32;7.60;99.90
2571;DHT22;1295;51.130;6.732;2023-02-05T10:25:40;7.60;99.90
2571;DHT22;1295;51.130;6.732;2023-02-05T10:28:16;7.60;99.90
2571;DHT22;1295;51.130;6.732;2023-02-05T10:30:55;7.60;99.90
2571;DHT22;1295;51.130;6.732;2023-02-05T10:33:41;7.60;99.90
2571;DHT22;1295;51.130;6.732;2023-02-05T10:36:05;7.60;99.90
2571;DHT22;1295;51.130;6.732;2023-02-05T10:38:32;7.60;99.90
2571;DHT22;1295;51.130;6.732;2023-02-05T10:41:00;7.60;99.90
2571;DHT22;1295;51.130;6.732;2023-02-05T10:43:29;7.60;99.90
2571;DHT22;1295;51.130;6.732;2023-02-05T10:45:53;7.60;99.90
2571;DHT22;1295;51.130;6.732;2023-02-05T10:48:29;7.60;99.90
2571;DHT22;1295;51.130;6.732;2023-02-05T10:51:00;7.60;99.90
2571;DHT22;1295;51.130;6.732;2023-02-05T10:53:27;7.50;99.90
2571;DHT22;1295;51.130;6.732;2023-02-05T10:55:53;7.60;99.90
2571;DHT22;1295;51.130;6.732;2023-02-05T10:58:38;7.60;99.90
2571;DHT22;1295;51.130;6.732;2023-02-05T11:01:05;7.60;99.90
2571;DHT22;1295;51.130;6.732;2023-02-05T11:03:30;7.60;99.90
2571;DHT22;1295;51.130;6.732;2023-02-05T11:05:56;7.60;99.90
2571;DHT22;1295;51.130;6.732;2023-02-05T11:08:30;7.60;99.90
2571;DHT22;1295;51.130;6.732;2023-02-05T11:10:54;7.50;99.90
2571;DHT22;1295;51.130;6.732;2023-02-05T11:13:20;7.60;99.90
2571;DHT22;1295;51.130;6.732;2023-02-05T11:15:54;7.60;99.90
2571;DHT22;1295;51.130;6.732;2023-02-05T11:18:22;7.60;99.90
2571;DHT22;1295;51.130;6.732;2023-02-05T11:20:53;7.60;99.90
2571;DHT22;1295;51.130;6.732;2023-02-05T11:23:17;7.60;99.90
2571;DHT22;1295;51.130;6.732;2023-02-05T11:25:48;7.60;99.90
2571;DHT22;1295;51.130;6.732;2023-02-05T11:28:18;7.60;99.90
2571;DHT22;1295;51.130;6.732;2023-02-05T11:30:39;7.50;99.90
2571;DHT22;1295;51.130;6.732;2023-02-05T11:33:24;7.60;99.90
2571;DHT22;1295;51.130;6.732;2023-02-05T11:36:08;7.60;99.90
2571;DHT22;1295;51.130;6.732;2023-02-05T11:41:06;7.50;99.90
2571;DHT22;1295;51.130;6.732;2023-02-05T11:43:33;7.60;99.90
2571;DHT22;1295;51.130;6.732;2023-02-05T11:45:58;7.50;99.90
2571;DHT22;1295;51.130;6.732;2023-02-05T11:48:41;7.60;99.90
2571;DHT22;1295;51.130;6.732;2023-02-05T11:51:13;7.50;99.90
2571;DHT22;1295;51.130;6.732;2023-02-05T11:53:37;7.50;99.90
2571;DHT22;1295;51.130;6.732;2023-02-05T11:56:09;7.50;99.90
2571;DHT22;1295;51.130;6.732;2023-02-05T11:58:33;7.50;99.90
2571;DHT22;1295;51.130;6.732;2023-02-05T12:01:00;7.50;99.90
2571;DHT22;1295;51.130;6.732;2023-02-05T12:03:27;7.50;99.90
2571;DHT22;1295;51.130;6.732;2023-02-05T12:05:53;7.50;99.90
2571;DHT22;1295;51.130;6.732;2023-02-05T12:08:25;7.50;99.90
2571;DHT22;1295;51.130;6.732;2023-02-05T12:13:46;7.50;99.90
2571;DHT22;1295;51.130;6.732;2023-02-05T12:16:26;7.50;99.90
2571;DHT22;1295;51.130;6.732;2023-02-05T12:19:00;7.60;99.90
2571;DHT22;1295;51.130;6.732;2023-02-05T12:21:31;7.50;99.90
2571;DHT22;1295;51.130;6.732;2023-02-05T12:24:07;7.50;99.90
2571;DHT22;1295;51.130;6.732;2023-02-05T12:26:36;7.50;99.90
2571;DHT22;1295;51.130;6.732;2023-02-05T12:32:08;7.50;99.90
2571;DHT22;1295;51.130;6.732;2023-02-05T12:35:27;7.50;99.90
2571;DHT22;1295;51.130;6.732;2023-02-05T12:37:36;7.50;99.90
2571;DHT22;1295;51.130;6.732;2023-02-05T12:40:00;7.50;99.90
2571;DHT22;1295;51.130;6.732;2023-02-05T12:42:34;7.50;99.90
2571;DHT22;1295;51.130;6.732;2023-02-05T12:45:04;7.50;99.90
2571;DHT22;1295;51.130;6.732;2023-02-05T12:47:46;7.50;99.90
2571;DHT22;1295;51.130;6.732;2023-02-05T12:55:42;7.50;99.90
2571;DHT22;1295;51.130;6.732;2023-02-05T12:58:04;7.50;99.90
2571;DHT22;1295;51.130;6.732;2023-02-05T13:00:32;7.50;99.90
2571;DHT22;1295;51.130;6.732;2023-02-05T13:03:05;7.50;99.90
2571;DHT22;1295;51.130;6.732;2023-02-05T13:05:30;7.60;99.90
2571;DHT22;1295;51.130;6.732;2023-02-05T13:07:59;7.70;99.90
2571;DHT22;1295;51.130;6.732;2023-02-05T13:10:24;7.70;99.90
2571;DHT22;1295;51.130;6.732;2023-02-05T13:12:49;7.80;99.90
2571;DHT22;1295;51.130;6.732;2023-02-05T13:15:18;7.90;99.90
2571;DHT22;1295;51.130;6.732;2023-02-05T13:17:50;7.90;99.90
2571;DHT22;1295;51.130;6.732;2023-02-05T13:20:18;7.90;99.90
2571;DHT22;1295;51.130;6.732;2023-02-05T13:22:46;7.90;99.90
2571;DHT22;1295;51.130;6.732;2023-02-05T13:25:16;7.90;99.90
2571;DHT22;1295;51.130;6.732;2023-02-05T13:27:48;8.00;99.90
2571;DHT22;1295;51.130;6.732;2023-02-05T13:30:21;8.00;99.90
2571;DHT22;1295;51.130;6.732;2023-02-05T13:32:46;8.00;99.90
2571;DHT22;1295;51.130;6.732;2023-02-05T13:35:12;7.90;99.90
2571;DHT22;1295;51.130;6.732;2023-02-05T13:37:44;7.80;99.90
2571;DHT22;1295;51.130;6.732;2023-02-05T13:40:20;7.80;99.90
2571;DHT22;1295;51.130;6.732;2023-02-05T13:45:35;7.90;99.90
2571;DHT22;1295;51.130;6.732;2023-02-05T13:48:13;8.00;99.90
2571;DHT22;1295;51.130;6.732;2023-02-05T13:53:17;8.00;99.90
2571;DHT22;1295;51.130;6.732;2023-02-05T13:58:28;7.90;99.90
2571;DHT22;1295;51.130;6.732;2023-02-05T14:00:58;8.00;99.90
2571;DHT22;1295;51.130;6.732;2023-02-05T14:03:26;8.00;99.90
2571;DHT22;1295;51.130;6.732;2023-02-05T14:05:50;7.90;99.90
2571;DHT22;1295;51.130;6.732;2023-02-05T14:08:19;8.00;99.90
2571;DHT22;1295;51.130;6.732;2023-02-05T14:10:44;8.00;99.90
2571;DHT22;1295;51.130;6.732;2023-02-05T14:13:26;8.00;99.90
2571;DHT22;1295;51.130;6.732;2023-02-05T14:15:51;7.90;99.90
2571;DHT22;1295;51.130;6.732;2023-02-05T14:20:54;7.90;99.90
2571;DHT22;1295;51.130;6.732;2023-02-05T14:26:05;7.90;99.90
2571;DHT22;1295;51.130;6.732;2023-02-05T14:28:33;8.00;99.90
2571;DHT22;1295;51.130;6.732;2023-02-05T14:31:00;7.90;99.90
2571;DHT22;1295;51.130;6.732;2023-02-05T14:33:39;7.90;99.90
2571;DHT22;1295;51.130;6.732;2023-02-05T14:36:25;8.00;99.90
2571;DHT22;1295;51.130;6.732;2023-02-05T14:38:54;7.90;99.90
2571;DHT22;1295;51.130;6.732;2023-02-05T14:41:29;8.00;99.90
2571;DHT22;1295;51.130;6.732;2023-02-05T14:43:59;7.90;99.90
2571;DHT22;1295;51.130;6.732;2023-02-05T14:46:43;7.90;99.90
2571;DHT22;1295;51.130;6.732;2023-02-05T14:49:19;7.90;99.90
2571;DHT22;1295;51.130;6.732;2023-02-05T14:51:37;7.90;99.90
2571;DHT22;1295;51.130;6.732;2023-02-05T14:54:19;7.80;99.90
2571;DHT22;1295;51.130;6.732;2023-02-05T14:56:45;7.80;99.90
2571;DHT22;1295;51.130;6.732;2023-02-05T14:59:30;7.90;99.90
2571;DHT22;1295;51.130;6.732;2023-02-05T15:01:56;8.00;99.90
2571;DHT22;1295;51.130;6.732;2023-02-05T15:04:26;8.00;99.90
2571;DHT22;1295;51.130;6.732;2023-02-05T15:06:49;7.90;99.90
2571;DHT22;1295;51.130;6.732;2023-02-05T15:09:17;8.00;99.90
2571;DHT22;1295;51.130;6.732;2023-02-05T15:14:25;8.00;99.90
2571;DHT22;1295;51.130;6.732;2023-02-05T15:19:28;7.90;99.90
2571;DHT22;1295;51.130;6.732;2023-02-05T15:21:54;7.90;99.90
2571;DHT22;1295;51.130;6.732;2023-02-05T15:24:21;7.90;99.90
2571;DHT22;1295;51.130;6.732;2023-02-05T15:26:57;7.90;99.90
2571;DHT22;1295;51.130;6.732;2023-02-05T15:29:25;7.80;99.90
2571;DHT22;1295;51.130;6.732;2023-02-05T15:31:51;7.90;99.90
2571;DHT22;1295;51.130;6.732;2023-02-05T15:34:28;7.80;99.90
2571;DHT22;1295;51.130;6.732;2023-02-05T15:36:53;7.90;99.90
2571;DHT22;1295;51.130;6.732;2023-02-05T15:39:25;7.90;99.90
2571;DHT22;1295;51.130;6.732;2023-02-05T15:41:49;7.90;99.90
2571;DHT22;1295;51.130;6.732;2023-02-05T15:44:20;7.90;99.90
2571;DHT22;1295;51.130;6.732;2023-02-05T15:46:45;7.90;99.90
2571;DHT22;1295;51.130;6.732;2023-02-05T15:49:11;7.90;99.90
2571;DHT22;1295;51.130;6.732;2023-02-05T15:51:36;7.90;99.90
2571;DHT22;1295;51.130;6.732;2023-02-05T15:54:02;7.90;99.90
2571;DHT22;1295;51.130;6.732;2023-02-05T15:56:35;7.80;99.90
2571;DHT22;1295;51.130;6.732;2023-02-05T15:59:05;7.70;99.90
2571;DHT22;1295;51.130;6.732;2023-02-05T16:01:34;7.80;99.90
2571;DHT22;1295;51.130;6.732;2023-02-05T16:03:59;7.80;99.90
2571;DHT22;1295;51.130;6.732;2023-02-05T16:06:25;7.80;99.90
2571;DHT22;1295;51.130;6.732;2023-02-05T16:08:50;7.80;99.90
2571;DHT22;1295;51.130;6.732;2023-02-05T16:11:26;7.80;99.90
2571;DHT22;1295;51.130;6.732;2023-02-05T16:14:01;7.80;99.90
2571;DHT22;1295;51.130;6.732;2023-02-05T16:16:26;7.80;99.90
2571;DHT22;1295;51.130;6.732;2023-02-05T16:18:53;7.80;99.90
2571;DHT22;1295;51.130;6.732;2023-02-05T16:21:31;7.80;99.90
2571;DHT22;1295;51.130;6.732;2023-02-05T16:23:57;7.70;99.90
2571;DHT22;1295;51.130;6.732;2023-02-05T16:26:25;7.80;99.90
2571;DHT22;1295;51.130;6.732;2023-02-05T16:28:55;7.80;99.90
2571;DHT22;1295;51.130;6.732;2023-02-05T16:31:20;7.80;99.90
2571;DHT22;1295;51.130;6.732;2023-02-05T16:33:50;7.80;99.90
2571;DHT22;1295;51.130;6.732;2023-02-05T16:36:20;7.80;99.90
2571;DHT22;1295;51.130;6.732;2023-02-05T16:38:47;7.80;99.90
2571;DHT22;1295;51.130;6.732;2023-02-05T16:41:25;7.80;99.90
2571;DHT22;1295;51.130;6.732;2023-02-05T16:43:50;7.80;99.90
2571;DHT22;1295;51.130;6.732;2023-02-05T16:46:19;7.80;99.90
2571;DHT22;1295;51.130;6.732;2023-02-05T16:48:56;7.80;99.90
2571;DHT22;1295;51.130;6.732;2023-02-05T16:51:29;7.70;99.90
2571;DHT22;1295;51.130;6.732;2023-02-05T16:53:53;7.80;99.90
2571;DHT22;1295;51.130;6.732;2023-02-05T16:56:20;7.80;99.90
2571;DHT22;1295;51.130;6.732;2023-02-05T16:58:45;7.80;99.90
2571;DHT22;1295;51.130;6.732;2023-02-05T17:01:10;7.80;99.90
2571;DHT22;1295;51.130;6.732;2023-02-05T17:03:38;7.80;99.90
2571;DHT22;1295;51.130;6.732;2023-02-05T17:06:06;7.80;99.90
2571;DHT22;1295;51.130;6.732;2023-02-05T17:08:30;7.80;99.90